sensor_id;sensor_type;location;lat;lon;timestamp;P1;durP1;ratioP1;P2;durP2;ratioP2
76236;SDS011;65038;53.200;6.530;2023-04-03T00:00:56;1.35;;;0.55;;
76236;SDS011;65038;53.200;6.530;2023-04-03T00:03:23;4.15;;;0.82;;
76236;SDS011;65038;53.200;6.530;2023-04-03T00:05:49;0.82;;;0.30;;
76236;SDS011;65038;53.200;6.530;2023-04-03T00:08:16;0.98;;;0.40;;
76236;SDS011;65038;53.200;6.530;2023-04-03T00:10:42;1.20;;;0.47;;
76236;SDS011;65038;53.200;6.530;2023-04-03T00:13:08;0.43;;;0.20;;
76236;SDS011;65038;53.200;6.530;2023-04-03T00:15:34;3.22;;;0.85;;
76236;SDS011;65038;53.200;6.530;2023-04-03T00:18:01;1.08;;;0.55;;
76236;SDS011;65038;53.200;6.530;2023-04-03T00:20:27;1.65;;;0.45;;
76236;SDS011;65038;53.200;6.530;2023-04-03T00:22:53;0.68;;;0.28;;
76236;SDS011;65038;53.200;6.530;2023-04-03T00:25:20;1.10;;;0.50;;
76236;SDS011;65038;53.200;6.530;2023-04-03T00:27:46;2.63;;;0.70;;
76236;SDS011;65038;53.200;6.530;2023-04-03T00:30:13;1.02;;;0.30;;
76236;SDS011;65038;53.200;6.530;2023-04-03T00:32:39;2.00;;;0.47;;
76236;SDS011;65038;53.200;6.530;2023-04-03T00:35:06;0.75;;;0.30;;
76236;SDS011;65038;53.200;6.530;2023-04-03T00:37:32;1.00;;;0.40;;
76236;SDS011;65038;53.200;6.530;2023-04-03T00:39:58;0.98;;;0.40;;
76236;SDS011;65038;53.200;6.530;2023-04-03T00:42:24;2.10;;;0.45;;
76236;SDS011;65038;53.200;6.530;2023-04-03T00:47:22;0.85;;;0.52;;
76236;SDS011;65038;53.200;6.530;2023-04-03T00:49:48;0.93;;;0.30;;
76236;SDS011;65038;53.200;6.530;2023-04-03T00:52:16;0.63;;;0.30;;
76236;SDS011;65038;53.200;6.530;2023-04-03T00:54:43;0.80;;;0.35;;
76236;SDS011;65038;53.200;6.530;2023-04-03T00:57:11;1.02;;;0.30;;
76236;SDS011;65038;53.200;6.530;2023-04-03T00:59:41;2.15;;;0.65;;
76236;SDS011;65038;53.200;6.530;2023-04-03T01:02:09;1.13;;;0.40;;
76236;SDS011;65038;53.200;6.530;2023-04-03T01:04:39;2.10;;;0.63;;
76236;SDS011;65038;53.200;6.530;2023-04-03T01:07:07;0.88;;;0.30;;
76236;SDS011;65038;53.200;6.530;2023-04-03T01:09:33;4.57;;;0.73;;
76236;SDS011;65038;53.200;6.530;2023-04-03T01:12:13;1.52;;;0.28;;
76236;SDS011;65038;53.200;6.530;2023-04-03T01:14:41;6.72;;;0.50;;
76236;SDS011;65038;53.200;6.530;2023-04-03T01:19:56;0.68;;;0.30;;
76236;SDS011;65038;53.200;6.530;2023-04-03T01:22:28;1.95;;;0.52;;
76236;SDS011;65038;53.200;6.530;2023-04-03T01:24:57;1.35;;;0.43;;
76236;SDS011;65038;53.200;6.530;2023-04-03T01:27:23;0.90;;;0.40;;
76236;SDS011;65038;53.200;6.530;2023-04-03T01:29:49;1.40;;;0.50;;
76236;SDS011;65038;53.200;6.530;2023-04-03T01:32:16;1.77;;;0.60;;
76236;SDS011;65038;53.200;6.530;2023-04-03T01:34:42;1.88;;;0.52;;
76236;SDS011;65038;53.200;6.530;2023-04-03T01:37:08;2.53;;;0.60;;
76236;SDS011;65038;53.200;6.530;2023-04-03T01:39:33;1.15;;;0.30;;
76236;SDS011;65038;53.200;6.530;2023-04-03T01:42:00;0.35;;;0.25;;
76236;SDS011;65038;53.200;6.530;2023-04-03T01:44:26;5.13;;;0.50;;
76236;SDS011;65038;53.200;6.530;2023-04-03T01:46:52;0.25;;;0.10;;
76236;SDS011;65038;53.200;6.530;2023-04-03T01:49:18;1.02;;;0.55;;
76236;SDS011;65038;53.200;6.530;2023-04-03T01:51:44;1.17;;;0.52;;
76236;SDS011;65038;53.200;6.530;2023-04-03T01:54:10;5.95;;;0.40;;
76236;SDS011;65038;53.200;6.530;2023-04-03T01:56:36;4.95;;;0.65;;
76236;SDS011;65038;53.200;6.530;2023-04-03T01:59:03;1.38;;;0.45;;
76236;SDS011;65038;53.200;6.530;2023-04-03T02:01:30;3.08;;;0.80;;
76236;SDS011;65038;53.200;6.530;2023-04-03T02:03:55;1.77;;;0.40;;
76236;SDS011;65038;53.200;6.530;2023-04-03T02:06:22;1.13;;;0.47;;
76236;SDS011;65038;53.200;6.530;2023-04-03T02:08:48;1.80;;;0.38;;
76236;SDS011;65038;53.200;6.530;2023-04-03T02:11:14;4.95;;;0.68;;
76236;SDS011;65038;53.200;6.530;2023-04-03T02:13:40;2.55;;;0.47;;
76236;SDS011;65038;53.200;6.530;2023-04-03T02:16:07;1.05;;;0.32;;
76236;SDS011;65038;53.200;6.530;2023-04-03T02:18:33;0.98;;;0.38;;
76236;SDS011;65038;53.200;6.530;2023-04-03T02:20:59;0.40;;;0.20;;
76236;SDS011;65038;53.200;6.530;2023-04-03T02:23:25;1.65;;;0.30;;
76236;SDS011;65038;53.200;6.530;2023-04-03T02:25:51;1.67;;;0.47;;
76236;SDS011;65038;53.200;6.530;2023-04-03T02:28:17;1.02;;;0.60;;
76236;SDS011;65038;53.200;6.530;2023-04-03T02:30:43;2.17;;;0.38;;
76236;SDS011;65038;53.200;6.530;2023-04-03T02:33:09;1.23;;;0.38;;
76236;SDS011;65038;53.200;6.530;2023-04-03T02:35:36;1.98;;;0.40;;
76236;SDS011;65038;53.200;6.530;2023-04-03T02:38:02;1.20;;;0.25;;
76236;SDS011;65038;53.200;6.530;2023-04-03T02:40:28;0.90;;;0.30;;
76236;SDS011;65038;53.200;6.530;2023-04-03T02:42:54;3.35;;;0.93;;
76236;SDS011;65038;53.200;6.530;2023-04-03T02:45:19;5.10;;;1.00;;
76236;SDS011;65038;53.200;6.530;2023-04-03T02:47:45;1.55;;;0.55;;
76236;SDS011;65038;53.200;6.530;2023-04-03T02:50:11;2.38;;;0.57;;
76236;SDS011;65038;53.200;6.530;2023-04-03T02:52:37;15.18;;;0.65;;
76236;SDS011;65038;53.200;6.530;2023-04-03T02:55:04;1.40;;;0.52;;
76236;SDS011;65038;53.200;6.530;2023-04-03T02:57:30;0.17;;;0.10;;
76236;SDS011;65038;53.200;6.530;2023-04-03T02:59:56;1.67;;;0.55;;
76236;SDS011;65038;53.200;6.530;2023-04-03T03:02:22;1.08;;;0.40;;
76236;SDS011;65038;53.200;6.530;2023-04-03T03:04:48;2.42;;;0.80;;
76236;SDS011;65038;53.200;6.530;2023-04-03T03:07:14;0.88;;;0.38;;
76236;SDS011;65038;53.200;6.530;2023-04-03T03:09:40;1.95;;;0.38;;
76236;SDS011;65038;53.200;6.530;2023-04-03T03:12:06;1.30;;;0.38;;
76236;SDS011;65038;53.200;6.530;2023-04-03T03:14:32;1.42;;;0.40;;
76236;SDS011;65038;53.200;6.530;2023-04-03T03:16:58;2.08;;;0.77;;
76236;SDS011;65038;53.200;6.530;2023-04-03T03:19:24;3.60;;;0.52;;
76236;SDS011;65038;53.200;6.530;2023-04-03T03:21:50;0.65;;;0.30;;
76236;SDS011;65038;53.200;6.530;2023-04-03T03:24:17;0.88;;;0.28;;
76236;SDS011;65038;53.200;6.530;2023-04-03T03:26:43;1.35;;;0.68;;
76236;SDS011;65038;53.200;6.530;2023-04-03T03:29:09;1.40;;;0.30;;
76236;SDS011;65038;53.200;6.530;2023-04-03T03:31:35;0.63;;;0.30;;
76236;SDS011;65038;53.200;6.530;2023-04-03T03:34:01;0.90;;;0.40;;
76236;SDS011;65038;53.200;6.530;2023-04-03T03:36:27;1.02;;;0.50;;
76236;SDS011;65038;53.200;6.530;2023-04-03T03:38:53;2.35;;;0.75;;
76236;SDS011;65038;53.200;6.530;2023-04-03T03:41:19;3.08;;;0.70;;
76236;SDS011;65038;53.200;6.530;2023-04-03T03:43:45;0.63;;;0.35;;
76236;SDS011;65038;53.200;6.530;2023-04-03T03:46:11;2.42;;;0.52;;
76236;SDS011;65038;53.200;6.530;2023-04-03T03:48:37;1.27;;;0.65;;
76236;SDS011;65038;53.200;6.530;2023-04-03T03:51:03;7.97;;;1.08;;
76236;SDS011;65038;53.200;6.530;2023-04-03T03:53:29;1.65;;;0.25;;
76236;SDS011;65038;53.200;6.530;2023-04-03T03:55:55;2.42;;;0.77;;
76236;SDS011;65038;53.200;6.530;2023-04-03T03:58:21;0.82;;;0.45;;
76236;SDS011;65038;53.200;6.530;2023-04-03T04:00:47;1.95;;;0.88;;
76236;SDS011;65038;53.200;6.530;2023-04-03T04:03:13;3.17;;;0.60;;
76236;SDS011;65038;53.200;6.530;2023-04-03T04:05:39;0.65;;;0.40;;
76236;SDS011;65038;53.200;6.530;2023-04-03T04:08:05;1.40;;;0.82;;
76236;SDS011;65038;53.200;6.530;2023-04-03T04:10:32;4.53;;;1.13;;
76236;SDS011;65038;53.200;6.530;2023-04-03T04:12:58;1.90;;;0.85;;
76236;SDS011;65038;53.200;6.530;2023-04-03T04:15:24;1.98;;;0.60;;
76236;SDS011;65038;53.200;6.530;2023-04-03T04:17:51;1.20;;;0.90;;
76236;SDS011;65038;53.200;6.530;2023-04-03T04:20:18;1.45;;;0.52;;
76236;SDS011;65038;53.200;6.530;2023-04-03T04:22:44;1.27;;;0.80;;
76236;SDS011;65038;53.200;6.530;2023-04-03T04:25:10;10.02;;;0.65;;
76236;SDS011;65038;53.200;6.530;2023-04-03T04:27:36;2.58;;;0.77;;
76236;SDS011;65038;53.200;6.530;2023-04-03T04:30:03;1.38;;;0.60;;
76236;SDS011;65038;53.200;6.530;2023-04-03T04:32:29;0.82;;;0.38;;
76236;SDS011;65038;53.200;6.530;2023-04-03T04:34:55;1.25;;;0.45;;
76236;SDS011;65038;53.200;6.530;2023-04-03T04:37:21;1.60;;;0.50;;
76236;SDS011;65038;53.200;6.530;2023-04-03T04:39:47;1.45;;;0.55;;
76236;SDS011;65038;53.200;6.530;2023-04-03T04:42:13;2.28;;;1.35;;
76236;SDS011;65038;53.200;6.530;2023-04-03T04:44:39;2.40;;;1.17;;
76236;SDS011;65038;53.200;6.530;2023-04-03T04:47:05;2.90;;;0.75;;
76236;SDS011;65038;53.200;6.530;2023-04-03T04:49:32;3.15;;;0.65;;
76236;SDS011;65038;53.200;6.530;2023-04-03T04:51:58;3.20;;;0.70;;
76236;SDS011;65038;53.200;6.530;2023-04-03T04:54:24;1.48;;;0.95;;
76236;SDS011;65038;53.200;6.530;2023-04-03T04:56:50;1.10;;;0.43;;
76236;SDS011;65038;53.200;6.530;2023-04-03T04:59:16;0.63;;;0.22;;
76236;SDS011;65038;53.200;6.530;2023-04-03T05:01:42;0.52;;;0.25;;
76236;SDS011;65038;53.200;6.530;2023-04-03T05:04:08;8.43;;;0.75;;
76236;SDS011;65038;53.200;6.530;2023-04-03T05:06:34;2.90;;;0.90;;
76236;SDS011;65038;53.200;6.530;2023-04-03T05:09:00;1.70;;;0.63;;
76236;SDS011;65038;53.200;6.530;2023-04-03T05:11:26;5.75;;;1.05;;
76236;SDS011;65038;53.200;6.530;2023-04-03T05:13:52;2.45;;;0.85;;
76236;SDS011;65038;53.200;6.530;2023-04-03T05:16:18;4.55;;;1.00;;
76236;SDS011;65038;53.200;6.530;2023-04-03T05:18:44;2.42;;;1.45;;
76236;SDS011;65038;53.200;6.530;2023-04-03T05:21:10;2.33;;;1.02;;
76236;SDS011;65038;53.200;6.530;2023-04-03T05:23:37;1.45;;;0.57;;
76236;SDS011;65038;53.200;6.530;2023-04-03T05:26:03;4.18;;;0.90;;
76236;SDS011;65038;53.200;6.530;2023-04-03T05:28:29;4.78;;;1.40;;
76236;SDS011;65038;53.200;6.530;2023-04-03T05:30:55;1.48;;;0.75;;
76236;SDS011;65038;53.200;6.530;2023-04-03T05:33:22;3.10;;;1.25;;
76236;SDS011;65038;53.200;6.530;2023-04-03T05:35:48;3.72;;;0.82;;
76236;SDS011;65038;53.200;6.530;2023-04-03T05:38:14;5.32;;;1.13;;
76236;SDS011;65038;53.200;6.530;2023-04-03T05:40:40;6.85;;;1.98;;
76236;SDS011;65038;53.200;6.530;2023-04-03T05:43:06;6.22;;;1.60;;
76236;SDS011;65038;53.200;6.530;2023-04-03T05:45:32;8.88;;;1.70;;
76236;SDS011;65038;53.200;6.530;2023-04-03T05:47:58;2.03;;;0.77;;
76236;SDS011;65038;53.200;6.530;2023-04-03T05:50:24;2.83;;;1.23;;
76236;SDS011;65038;53.200;6.530;2023-04-03T05:52:50;3.30;;;0.90;;
76236;SDS011;65038;53.200;6.530;2023-04-03T05:55:18;2.65;;;0.43;;
76236;SDS011;65038;53.200;6.530;2023-04-03T05:57:44;2.38;;;0.68;;
76236;SDS011;65038;53.200;6.530;2023-04-03T06:00:12;2.35;;;1.00;;
76236;SDS011;65038;53.200;6.530;2023-04-03T06:02:39;1.45;;;0.65;;
76236;SDS011;65038;53.200;6.530;2023-04-03T06:05:06;4.05;;;1.38;;
76236;SDS011;65038;53.200;6.530;2023-04-03T06:07:33;2.25;;;0.93;;
76236;SDS011;65038;53.200;6.530;2023-04-03T06:10:00;2.13;;;1.20;;
76236;SDS011;65038;53.200;6.530;2023-04-03T06:12:26;2.35;;;1.13;;
76236;SDS011;65038;53.200;6.530;2023-04-03T06:14:54;4.22;;;1.42;;
76236;SDS011;65038;53.200;6.530;2023-04-03T06:17:20;3.70;;;0.93;;
76236;SDS011;65038;53.200;6.530;2023-04-03T06:19:47;4.13;;;1.00;;
76236;SDS011;65038;53.200;6.530;2023-04-03T06:22:13;4.72;;;1.42;;
76236;SDS011;65038;53.200;6.530;2023-04-03T06:24:40;2.95;;;0.98;;
76236;SDS011;65038;53.200;6.530;2023-04-03T06:27:06;2.05;;;0.75;;
76236;SDS011;65038;53.200;6.530;2023-04-03T06:29:33;5.47;;;1.98;;
76236;SDS011;65038;53.200;6.530;2023-04-03T06:31:59;5.15;;;1.40;;
76236;SDS011;65038;53.200;6.530;2023-04-03T06:34:25;1.70;;;0.68;;
76236;SDS011;65038;53.200;6.530;2023-04-03T06:36:51;1.77;;;0.75;;
76236;SDS011;65038;53.200;6.530;2023-04-03T06:39:18;1.77;;;0.55;;
76236;SDS011;65038;53.200;6.530;2023-04-03T06:41:48;5.38;;;1.00;;
76236;SDS011;65038;53.200;6.530;2023-04-03T06:44:14;1.80;;;0.98;;
76236;SDS011;65038;53.200;6.530;2023-04-03T06:46:41;2.60;;;0.82;;
76236;SDS011;65038;53.200;6.530;2023-04-03T06:49:07;3.10;;;1.00;;
76236;SDS011;65038;53.200;6.530;2023-04-03T06:51:33;3.13;;;1.10;;
76236;SDS011;65038;53.200;6.530;2023-04-03T06:54:00;4.80;;;1.23;;
76236;SDS011;65038;53.200;6.530;2023-04-03T06:56:26;4.13;;;1.00;;
76236;SDS011;65038;53.200;6.530;2023-04-03T06:58:53;3.80;;;1.05;;
76236;SDS011;65038;53.200;6.530;2023-04-03T07:01:19;3.72;;;1.00;;
76236;SDS011;65038;53.200;6.530;2023-04-03T07:03:46;1.90;;;0.93;;
76236;SDS011;65038;53.200;6.530;2023-04-03T07:06:13;1.15;;;0.60;;
76236;SDS011;65038;53.200;6.530;2023-04-03T07:08:40;1.50;;;0.75;;
76236;SDS011;65038;53.200;6.530;2023-04-03T07:11:07;2.65;;;1.15;;
76236;SDS011;65038;53.200;6.530;2023-04-03T07:13:34;3.42;;;1.17;;
76236;SDS011;65038;53.200;6.530;2023-04-03T07:16:00;4.75;;;1.02;;
76236;SDS011;65038;53.200;6.530;2023-04-03T07:18:28;4.90;;;1.05;;
76236;SDS011;65038;53.200;6.530;2023-04-03T07:20:57;2.40;;;1.05;;
76236;SDS011;65038;53.200;6.530;2023-04-03T07:23:23;2.80;;;0.95;;
76236;SDS011;65038;53.200;6.530;2023-04-03T07:25:50;2.25;;;1.17;;
76236;SDS011;65038;53.200;6.530;2023-04-03T07:28:16;4.72;;;1.15;;
76236;SDS011;65038;53.200;6.530;2023-04-03T07:30:44;4.95;;;1.27;;
76236;SDS011;65038;53.200;6.530;2023-04-03T07:33:10;6.53;;;1.38;;
76236;SDS011;65038;53.200;6.530;2023-04-03T07:35:37;6.13;;;1.63;;
76236;SDS011;65038;53.200;6.530;2023-04-03T07:38:03;2.28;;;0.73;;
76236;SDS011;65038;53.200;6.530;2023-04-03T07:40:29;3.90;;;1.13;;
76236;SDS011;65038;53.200;6.530;2023-04-03T07:42:55;2.83;;;1.10;;
76236;SDS011;65038;53.200;6.530;2023-04-03T07:45:22;2.97;;;1.23;;
76236;SDS011;65038;53.200;6.530;2023-04-03T07:47:48;3.00;;;1.05;;
76236;SDS011;65038;53.200;6.530;2023-04-03T07:50:14;3.42;;;1.23;;
76236;SDS011;65038;53.200;6.530;2023-04-03T07:52:41;1.85;;;0.93;;
76236;SDS011;65038;53.200;6.530;2023-04-03T07:55:07;4.57;;;1.60;;
76236;SDS011;65038;53.200;6.530;2023-04-03T07:57:33;2.85;;;1.20;;
76236;SDS011;65038;53.200;6.530;2023-04-03T08:00:00;3.30;;;1.23;;
76236;SDS011;65038;53.200;6.530;2023-04-03T08:02:26;1.67;;;0.77;;
76236;SDS011;65038;53.200;6.530;2023-04-03T08:04:52;2.28;;;1.05;;
76236;SDS011;65038;53.200;6.530;2023-04-03T08:07:18;7.93;;;1.65;;
76236;SDS011;65038;53.200;6.530;2023-04-03T08:09:46;4.03;;;1.45;;
76236;SDS011;65038;53.200;6.530;2023-04-03T08:12:12;3.97;;;1.10;;
76236;SDS011;65038;53.200;6.530;2023-04-03T08:14:39;3.30;;;0.98;;
76236;SDS011;65038;53.200;6.530;2023-04-03T08:17:05;4.70;;;1.20;;
76236;SDS011;65038;53.200;6.530;2023-04-03T08:19:34;7.15;;;1.45;;
76236;SDS011;65038;53.200;6.530;2023-04-03T08:22:00;3.30;;;1.20;;
76236;SDS011;65038;53.200;6.530;2023-04-03T08:24:28;3.65;;;0.90;;
76236;SDS011;65038;53.200;6.530;2023-04-03T08:26:54;2.30;;;0.82;;
76236;SDS011;65038;53.200;6.530;2023-04-03T08:29:20;7.07;;;1.05;;
76236;SDS011;65038;53.200;6.530;2023-04-03T08:31:46;4.47;;;1.33;;
76236;SDS011;65038;53.200;6.530;2023-04-03T08:34:14;3.22;;;1.00;;
76236;SDS011;65038;53.200;6.530;2023-04-03T08:36:40;2.30;;;0.75;;
76236;SDS011;65038;53.200;6.530;2023-04-03T08:39:06;5.78;;;1.13;;
76236;SDS011;65038;53.200;6.530;2023-04-03T08:41:33;2.55;;;0.95;;
76236;SDS011;65038;53.200;6.530;2023-04-03T08:49:22;4.82;;;1.40;;
76236;SDS011;65038;53.200;6.530;2023-04-03T08:51:50;2.63;;;0.85;;
76236;SDS011;65038;53.200;6.530;2023-04-03T08:54:21;1.85;;;0.50;;
76236;SDS011;65038;53.200;6.530;2023-04-03T08:56:49;1.77;;;0.73;;
76236;SDS011;65038;53.200;6.530;2023-04-03T08:59:17;5.32;;;1.50;;
76236;SDS011;65038;53.200;6.530;2023-04-03T09:01:45;4.07;;;1.20;;
76236;SDS011;65038;53.200;6.530;2023-04-03T09:04:12;2.97;;;0.93;;
76236;SDS011;65038;53.200;6.530;2023-04-03T09:06:39;3.90;;;1.17;;
76236;SDS011;65038;53.200;6.530;2023-04-03T09:11:47;5.65;;;1.60;;
76236;SDS011;65038;53.200;6.530;2023-04-03T09:16:55;5.28;;;1.55;;
76236;SDS011;65038;53.200;6.530;2023-04-03T09:21:48;5.03;;;1.50;;
76236;SDS011;65038;53.200;6.530;2023-04-03T09:24:15;6.28;;;1.60;;
76236;SDS011;65038;53.200;6.530;2023-04-03T09:26:43;3.70;;;1.58;;
76236;SDS011;65038;53.200;6.530;2023-04-03T09:29:13;4.28;;;1.67;;
76236;SDS011;65038;53.200;6.530;2023-04-03T09:31:41;4.95;;;1.30;;
76236;SDS011;65038;53.200;6.530;2023-04-03T09:34:25;4.55;;;1.52;;
76236;SDS011;65038;53.200;6.530;2023-04-03T09:36:55;4.72;;;1.48;;
76236;SDS011;65038;53.200;6.530;2023-04-03T09:39:28;4.97;;;1.35;;
76236;SDS011;65038;53.200;6.530;2023-04-03T09:41:56;4.80;;;1.30;;
76236;SDS011;65038;53.200;6.530;2023-04-03T09:44:26;2.90;;;1.15;;
76236;SDS011;65038;53.200;6.530;2023-04-03T09:46:53;3.42;;;1.20;;
76236;SDS011;65038;53.200;6.530;2023-04-03T09:49:19;4.32;;;1.50;;
76236;SDS011;65038;53.200;6.530;2023-04-03T09:51:45;4.35;;;1.60;;
76236;SDS011;65038;53.200;6.530;2023-04-03T09:54:31;4.22;;;1.33;;
76236;SDS011;65038;53.200;6.530;2023-04-03T09:56:58;3.42;;;1.20;;
76236;SDS011;65038;53.200;6.530;2023-04-03T09:59:30;4.28;;;1.30;;
76236;SDS011;65038;53.200;6.530;2023-04-03T10:02:02;3.17;;;1.33;;
76236;SDS011;65038;53.200;6.530;2023-04-03T10:04:39;4.30;;;1.38;;
76236;SDS011;65038;53.200;6.530;2023-04-03T10:07:25;3.83;;;1.27;;
76236;SDS011;65038;53.200;6.530;2023-04-03T10:09:56;4.60;;;1.33;;
76236;SDS011;65038;53.200;6.530;2023-04-03T10:12:22;5.22;;;1.30;;
76236;SDS011;65038;53.200;6.530;2023-04-03T10:14:56;4.25;;;1.10;;
76236;SDS011;65038;53.200;6.530;2023-04-03T10:32:45;4.22;;;1.20;;
76236;SDS011;65038;53.200;6.530;2023-04-03T10:40:29;3.92;;;1.25;;
76236;SDS011;65038;53.200;6.530;2023-04-03T10:43:06;2.88;;;1.08;;
76236;SDS011;65038;53.200;6.530;2023-04-03T10:46:22;3.88;;;1.20;;
76236;SDS011;65038;53.200;6.530;2023-04-03T10:53:34;5.10;;;1.10;;
76236;SDS011;65038;53.200;6.530;2023-04-03T10:58:40;3.85;;;1.42;;
76236;SDS011;65038;53.200;6.530;2023-04-03T11:01:18;3.33;;;1.20;;
76236;SDS011;65038;53.200;6.530;2023-04-03T11:03:53;3.58;;;1.10;;
76236;SDS011;65038;53.200;6.530;2023-04-03T11:06:21;5.00;;;1.30;;
76236;SDS011;65038;53.200;6.530;2023-04-03T11:08:58;2.38;;;0.80;;
76236;SDS011;65038;53.200;6.530;2023-04-03T11:11:29;4.53;;;1.00;;
76236;SDS011;65038;53.200;6.530;2023-04-03T11:14:01;3.38;;;1.00;;
76236;SDS011;65038;53.200;6.530;2023-04-03T11:16:28;3.63;;;1.10;;
76236;SDS011;65038;53.200;6.530;2023-04-03T11:19:07;4.22;;;1.13;;
76236;SDS011;65038;53.200;6.530;2023-04-03T11:24:04;2.60;;;0.80;;
76236;SDS011;65038;53.200;6.530;2023-04-03T11:26:35;5.20;;;1.00;;
76236;SDS011;65038;53.200;6.530;2023-04-03T11:29:04;3.65;;;1.17;;
76236;SDS011;65038;53.200;6.530;2023-04-03T11:34:15;4.28;;;1.10;;
76236;SDS011;65038;53.200;6.530;2023-04-03T11:36:45;3.17;;;0.95;;
76236;SDS011;65038;53.200;6.530;2023-04-03T11:41:41;3.72;;;1.00;;
76236;SDS011;65038;53.200;6.530;2023-04-03T11:46:53;3.67;;;1.00;;
76236;SDS011;65038;53.200;6.530;2023-04-03T11:52:07;4.75;;;1.10;;
76236;SDS011;65038;53.200;6.530;2023-04-03T11:54:36;2.83;;;0.95;;
76236;SDS011;65038;53.200;6.530;2023-04-03T12:02:34;3.05;;;1.00;;
76236;SDS011;65038;53.200;6.530;2023-04-03T12:05:23;3.00;;;1.00;;
76236;SDS011;65038;53.200;6.530;2023-04-03T12:08:24;3.45;;;1.02;;
76236;SDS011;65038;53.200;6.530;2023-04-03T12:10:50;2.90;;;0.90;;
76236;SDS011;65038;53.200;6.530;2023-04-03T12:13:29;2.80;;;1.00;;
76236;SDS011;65038;53.200;6.530;2023-04-03T12:15:55;5.40;;;1.40;;
76236;SDS011;65038;53.200;6.530;2023-04-03T12:20:57;2.15;;;0.90;;
76236;SDS011;65038;53.200;6.530;2023-04-03T12:23:31;3.05;;;1.10;;
76236;SDS011;65038;53.200;6.530;2023-04-03T12:28:42;2.88;;;1.08;;
76236;SDS011;65038;53.200;6.530;2023-04-03T12:31:10;4.28;;;1.40;;
76236;SDS011;65038;53.200;6.530;2023-04-03T12:36:11;3.92;;;1.02;;
76236;SDS011;65038;53.200;6.530;2023-04-03T12:44:13;2.92;;;1.15;;
76236;SDS011;65038;53.200;6.530;2023-04-03T12:46:45;3.17;;;0.95;;
76236;SDS011;65038;53.200;6.530;2023-04-03T12:51:57;3.53;;;0.98;;
76236;SDS011;65038;53.200;6.530;2023-04-03T12:56:49;3.78;;;1.20;;
76236;SDS011;65038;53.200;6.530;2023-04-03T12:59:22;3.83;;;1.08;;
76236;SDS011;65038;53.200;6.530;2023-04-03T13:01:53;6.05;;;1.10;;
76236;SDS011;65038;53.200;6.530;2023-04-03T13:04:19;3.25;;;1.20;;
76236;SDS011;65038;53.200;6.530;2023-04-03T13:06:45;3.83;;;1.10;;
76236;SDS011;65038;53.200;6.530;2023-04-03T13:09:21;4.15;;;1.10;;
76236;SDS011;65038;53.200;6.530;2023-04-03T13:11:48;3.70;;;1.00;;
76236;SDS011;65038;53.200;6.530;2023-04-03T13:14:19;3.50;;;1.10;;
76236;SDS011;65038;53.200;6.530;2023-04-03T13:19:44;3.45;;;1.10;;
76236;SDS011;65038;53.200;6.530;2023-04-03T13:22:45;3.33;;;1.00;;
76236;SDS011;65038;53.200;6.530;2023-04-03T13:25:08;3.63;;;0.98;;
76236;SDS011;65038;53.200;6.530;2023-04-03T13:27:35;4.03;;;1.10;;
76236;SDS011;65038;53.200;6.530;2023-04-03T13:30:02;3.20;;;0.85;;
76236;SDS011;65038;53.200;6.530;2023-04-03T13:32:30;2.80;;;0.88;;
76236;SDS011;65038;53.200;6.530;2023-04-03T13:34:57;3.22;;;1.00;;
76236;SDS011;65038;53.200;6.530;2023-04-03T13:37:28;3.25;;;1.20;;
76236;SDS011;65038;53.200;6.530;2023-04-03T13:40:03;4.60;;;1.10;;
76236;SDS011;65038;53.200;6.530;2023-04-03T13:42:31;3.90;;;1.13;;
76236;SDS011;65038;53.200;6.530;2023-04-03T13:47:39;3.22;;;0.98;;
76236;SDS011;65038;53.200;6.530;2023-04-03T13:52:42;5.47;;;1.20;;
76236;SDS011;65038;53.200;6.530;2023-04-03T13:58:00;3.38;;;1.10;;
76236;SDS011;65038;53.200;6.530;2023-04-03T14:03:12;4.05;;;1.25;;
76236;SDS011;65038;53.200;6.530;2023-04-03T14:05:38;4.93;;;1.23;;
76236;SDS011;65038;53.200;6.530;2023-04-03T14:08:04;2.47;;;1.00;;
76236;SDS011;65038;53.200;6.530;2023-04-03T14:10:31;3.35;;;1.05;;
76236;SDS011;65038;53.200;6.530;2023-04-03T14:12:57;2.95;;;1.08;;
76236;SDS011;65038;53.200;6.530;2023-04-03T14:15:24;3.17;;;1.00;;
76236;SDS011;65038;53.200;6.530;2023-04-03T14:17:52;3.35;;;1.20;;
76236;SDS011;65038;53.200;6.530;2023-04-03T14:20:19;4.13;;;1.30;;
76236;SDS011;65038;53.200;6.530;2023-04-03T14:22:46;5.10;;;1.30;;
76236;SDS011;65038;53.200;6.530;2023-04-03T14:25:14;3.53;;;1.35;;
76236;SDS011;65038;53.200;6.530;2023-04-03T14:27:41;4.38;;;1.20;;
76236;SDS011;65038;53.200;6.530;2023-04-03T14:30:30;3.72;;;1.15;;
76236;SDS011;65038;53.200;6.530;2023-04-03T14:32:54;4.00;;;1.20;;
76236;SDS011;65038;53.200;6.530;2023-04-03T14:35:20;4.35;;;1.20;;
76236;SDS011;65038;53.200;6.530;2023-04-03T14:37:46;5.30;;;1.48;;
76236;SDS011;65038;53.200;6.530;2023-04-03T14:40:13;4.10;;;1.20;;
76236;SDS011;65038;53.200;6.530;2023-04-03T14:42:40;5.38;;;1.10;;
76236;SDS011;65038;53.200;6.530;2023-04-03T14:45:08;3.85;;;1.13;;
76236;SDS011;65038;53.200;6.530;2023-04-03T14:47:36;3.13;;;1.00;;
76236;SDS011;65038;53.200;6.530;2023-04-03T14:50:06;2.80;;;0.90;;
76236;SDS011;65038;53.200;6.530;2023-04-03T14:52:34;4.10;;;1.30;;
76236;SDS011;65038;53.200;6.530;2023-04-03T14:55:01;5.05;;;1.20;;
76236;SDS011;65038;53.200;6.530;2023-04-03T14:57:27;3.42;;;1.00;;
76236;SDS011;65038;53.200;6.530;2023-04-03T14:59:54;4.25;;;1.00;;
76236;SDS011;65038;53.200;6.530;2023-04-03T15:02:24;3.42;;;1.15;;
76236;SDS011;65038;53.200;6.530;2023-04-03T15:04:51;2.80;;;1.00;;
76236;SDS011;65038;53.200;6.530;2023-04-03T15:07:17;3.38;;;1.10;;
76236;SDS011;65038;53.200;6.530;2023-04-03T15:09:43;3.53;;;1.00;;
76236;SDS011;65038;53.200;6.530;2023-04-03T15:12:10;3.33;;;1.10;;
76236;SDS011;65038;53.200;6.530;2023-04-03T15:14:36;2.55;;;1.00;;
76236;SDS011;65038;53.200;6.530;2023-04-03T15:17:02;4.20;;;1.35;;
76236;SDS011;65038;53.200;6.530;2023-04-03T15:19:29;3.78;;;1.23;;
76236;SDS011;65038;53.200;6.530;2023-04-03T15:21:55;4.60;;;1.23;;
76236;SDS011;65038;53.200;6.530;2023-04-03T15:24:21;3.03;;;1.10;;
76236;SDS011;65038;53.200;6.530;2023-04-03T15:26:47;2.42;;;1.02;;
76236;SDS011;65038;53.200;6.530;2023-04-03T15:29:13;3.10;;;1.10;;
76236;SDS011;65038;53.200;6.530;2023-04-03T15:31:39;3.75;;;1.15;;
76236;SDS011;65038;53.200;6.530;2023-04-03T15:34:05;3.00;;;0.98;;
76236;SDS011;65038;53.200;6.530;2023-04-03T15:36:31;3.60;;;1.00;;
76236;SDS011;65038;53.200;6.530;2023-04-03T15:38:57;4.30;;;1.13;;
76236;SDS011;65038;53.200;6.530;2023-04-03T15:41:23;3.33;;;1.20;;
76236;SDS011;65038;53.200;6.530;2023-04-03T15:43:49;3.55;;;1.10;;
76236;SDS011;65038;53.200;6.530;2023-04-03T15:46:15;4.22;;;1.50;;
76236;SDS011;65038;53.200;6.530;2023-04-03T15:48:41;3.83;;;1.00;;
76236;SDS011;65038;53.200;6.530;2023-04-03T15:51:08;5.53;;;1.17;;
76236;SDS011;65038;53.200;6.530;2023-04-03T15:53:33;3.67;;;1.10;;
76236;SDS011;65038;53.200;6.530;2023-04-03T15:55:59;3.75;;;1.00;;
76236;SDS011;65038;53.200;6.530;2023-04-03T15:58:25;2.22;;;0.80;;
76236;SDS011;65038;53.200;6.530;2023-04-03T16:00:52;3.08;;;1.00;;
76236;SDS011;65038;53.200;6.530;2023-04-03T16:03:18;3.28;;;0.95;;
76236;SDS011;65038;53.200;6.530;2023-04-03T16:05:45;4.35;;;1.10;;
76236;SDS011;65038;53.200;6.530;2023-04-03T16:08:11;3.90;;;1.00;;
76236;SDS011;65038;53.200;6.530;2023-04-03T16:10:38;3.08;;;1.05;;
76236;SDS011;65038;53.200;6.530;2023-04-03T16:13:05;3.88;;;1.10;;
76236;SDS011;65038;53.200;6.530;2023-04-03T16:15:31;4.38;;;1.17;;
76236;SDS011;65038;53.200;6.530;2023-04-03T16:17:58;3.55;;;0.90;;
76236;SDS011;65038;53.200;6.530;2023-04-03T16:20:24;4.72;;;1.00;;
76236;SDS011;65038;53.200;6.530;2023-04-03T16:22:51;2.72;;;0.90;;
76236;SDS011;65038;53.200;6.530;2023-04-03T16:25:17;2.72;;;0.90;;
76236;SDS011;65038;53.200;6.530;2023-04-03T16:27:43;3.97;;;1.10;;